createdAt,value
2023-11-03T00:00:30.702Z,96988.09
2023-11-03T00:05:22.603Z,96984.63
2023-11-03T00:10:15.402Z,96997.06
2023-11-03T00:15:11.118Z,96897.00
2023-11-03T00:20:03.129Z,96942.78
2023-11-03T00:24:54.997Z,96974.00
2023-11-03T00:29:46.978Z,96950.75
2023-11-03T00:34:39.269Z,96923.56
2023-11-03T00:39:30.956Z,96903.13
2023-11-03T00:44:26.133Z,96897.19
2023-11-03T00:49:19.967Z,96875.75
2023-11-03T00:54:11.813Z,96920.06
2023-11-03T00:59:08.020Z,96943.78
2023-11-03T01:03:59.876Z,96940.50
2023-11-03T01:08:55.156Z,96959.72
2023-11-03T01:13:46.917Z,96918.25
2023-11-03T01:18:42.347Z,96942.13
2023-11-03T01:23:34.296Z,96972.13
2023-11-03T01:28:25.993Z,96968.28
2023-11-03T01:33:17.757Z,96969.06
2023-11-03T01:38:09.577Z,96952.13
2023-11-03T01:43:01.315Z,96976.66
2023-11-03T01:47:53.597Z,97014.84
2023-11-03T01:52:48.141Z,96996.25
2023-11-03T01:57:41.481Z,96989.94
2023-11-03T02:02:34.645Z,96968.28
2023-11-03T02:07:26.807Z,96958.25
2023-11-03T02:12:18.609Z,96964.41
2023-11-03T02:17:10.516Z,96913.50
2023-11-03T02:22:02.392Z,96906.16
2023-11-03T02:26:54.144Z,96895.34
2023-11-03T02:31:46.793Z,96869.63
2023-11-03T02:36:38.526Z,96831.63
2023-11-03T02:41:30.410Z,96840.41
2023-11-03T02:46:24.806Z,96853.25
2023-11-03T02:51:17.093Z,96815.88
2023-11-03T02:56:08.940Z,96799.16
2023-11-03T03:01:00.747Z,96786.09
2023-11-03T03:05:52.501Z,96796.50
2023-11-03T03:10:44.174Z,96788.75
2023-11-03T03:15:35.895Z,96804.47
2023-11-03T03:20:27.671Z,96815.88
2023-11-03T03:25:20.093Z,96807.13
2023-11-03T03:30:12.708Z,96816.94
2023-11-03T03:35:04.806Z,96815.88
2023-11-03T03:39:56.491Z,96830.00
2023-11-03T03:44:48.333Z,96825.69
2023-11-03T03:49:40.056Z,96824.06
2023-11-03T03:54:31.772Z,96810.78
2023-11-03T03:59:23.499Z,96822.41
2023-11-03T04:04:15.354Z,96824.06
2023-11-03T04:09:08.096Z,96801.16
2023-11-03T04:13:59.802Z,96802.00
2023-11-03T04:18:51.661Z,96824.28
2023-11-03T04:23:43.383Z,96796.88
2023-11-03T04:28:36.457Z,96808.34
2023-11-03T04:33:28.166Z,96826.09
2023-11-03T04:38:19.887Z,96815.47
2023-11-03T04:43:11.627Z,96826.09
2023-11-03T04:48:03.632Z,96814.44
2023-11-03T04:52:55.302Z,96776.47
2023-11-03T04:57:47.039Z,96782.81
2023-11-03T05:02:39.231Z,96788.13
2023-11-03T05:07:33.226Z,96766.03
2023-11-03T05:12:24.928Z,96715.00
2023-11-03T05:17:16.651Z,96743.19
2023-11-03T05:22:08.483Z,96739.91
2023-11-03T05:27:00.224Z,96739.28
2023-11-03T05:31:51.963Z,96746.41
2023-11-03T05:36:45.039Z,96742.16
2023-11-03T05:41:37.703Z,96772.97
2023-11-03T05:46:29.892Z,96783.16
2023-11-03T05:51:22.753Z,96785.44
2023-11-03T05:56:14.480Z,96774.19
2023-11-03T06:01:07.788Z,96778.47
2023-11-03T06:05:59.711Z,96759.09
2023-11-03T06:10:51.885Z,96759.09
2023-11-03T06:15:44.419Z,96767.25
2023-11-03T06:20:36.212Z,96792.13
2023-11-03T06:25:28.132Z,96801.56
2023-11-03T06:30:19.939Z,96814.19
2023-11-03T06:35:11.624Z,96829.94
2023-11-03T06:40:04.074Z,96844.84
2023-11-03T06:44:55.945Z,96840.38
2023-11-03T06:49:47.911Z,96835.25
2023-11-03T06:54:39.861Z,96867.94
2023-11-03T06:59:31.574Z,96857.09
2023-11-03T07:04:26.063Z,96857.91
2023-11-03T07:09:18.137Z,96874.88
2023-11-03T07:14:09.824Z,96903.25
2023-11-03T07:19:01.596Z,96958.38
2023-11-03T07:23:54.133Z,97000.84
2023-11-03T07:28:46.789Z,97020.28
2023-11-03T07:33:44.772Z,97021.44
2023-11-03T07:38:36.911Z,97020.41
2023-11-03T07:43:28.665Z,97033.69
2023-11-03T07:48:20.589Z,97040.03
2023-11-03T07:53:12.332Z,97060.63
2023-11-03T07:58:06.935Z,97077.38
2023-11-03T08:03:00.960Z,97095.94
2023-11-03T08:07:54.397Z,97101.25
2023-11-03T08:12:46.210Z,97131.47
2023-11-03T08:17:38.220Z,97161.31
2023-11-03T08:22:30.546Z,97184.56
2023-11-03T08:27:22.302Z,97186.78
2023-11-03T08:32:13.985Z,97209.66
2023-11-03T08:37:05.804Z,97223.56
2023-11-03T08:42:02.034Z,97241.41
2023-11-03T08:46:55.077Z,97249.75
2023-11-03T08:51:46.903Z,97232.78
2023-11-03T08:56:40.363Z,97248.72
2023-11-03T09:01:32.157Z,97265.84
2023-11-03T09:06:23.984Z,97262.66
2023-11-03T09:11:16.777Z,97258.63
2023-11-03T09:16:09.615Z,97253.31
2023-11-03T09:21:03.868Z,97265.19
2023-11-03T09:25:55.812Z,97286.44
2023-11-03T09:30:50.113Z,97276.44
2023-11-03T09:35:41.961Z,97308.75
2023-11-03T09:40:36.912Z,97309.59
2023-11-03T09:45:30.731Z,97293.66
2023-11-03T09:50:25.681Z,97284.06
2023-11-03T09:55:23.074Z,97294.91
2023-11-03T10:00:17.901Z,97312.50
2023-11-03T10:05:15.608Z,97316.81
2023-11-03T10:10:08.628Z,97318.66
2023-11-03T10:15:02.211Z,97323.78
2023-11-03T10:19:57.109Z,97340.34
2023-11-03T10:24:49.035Z,97352.63
2023-11-03T10:29:41.395Z,97343.00
2023-11-03T10:34:33.827Z,97347.31
2023-11-03T10:39:29.360Z,97356.34
2023-11-03T10:44:27.355Z,97349.19
2023-11-03T10:49:34.038Z,97358.81
2023-11-03T10:54:31.501Z,97369.25
2023-11-03T10:59:33.467Z,97370.09
2023-11-03T11:05:22.134Z,97391.78
2023-11-03T11:10:15.878Z,97392.78
2023-11-03T11:15:11.722Z,97383.63
2023-11-03T11:20:05.616Z,97380.59
2023-11-03T11:25:02.737Z,97369.31
2023-11-03T11:30:13.634Z,97349.72
2023-11-03T11:35:11.789Z,97354.66
2023-11-03T11:40:07.227Z,97354.66
2023-11-03T11:45:00.625Z,97368.59
2023-11-03T11:49:54.889Z,97369.41
2023-11-03T11:54:47.982Z,97371.84
2023-11-03T11:59:42.158Z,97351.44
2023-11-03T12:04:34.037Z,97355.53
2023-11-03T12:09:25.827Z,97366.19
2023-11-03T12:14:17.832Z,97332.78
2023-11-03T12:19:12.415Z,97347.56
2023-11-03T12:24:05.545Z,97344.09
2023-11-03T12:29:32.712Z,97335.13
2023-11-03T12:34:26.774Z,97324.00
2023-11-03T12:39:19.813Z,97353.91
2023-11-03T12:44:11.862Z,97354.75
2023-11-03T12:49:10.554Z,97349.78
2023-11-03T12:54:04.262Z,97371.69
2023-11-03T12:58:57.881Z,97401.72
2023-11-03T13:03:49.735Z,97395.59
2023-11-03T13:08:41.901Z,97383.78
2023-11-03T13:13:33.697Z,97379.28
2023-11-03T13:18:25.573Z,97366.81
2023-11-03T13:23:18.025Z,97362.50
2023-11-03T13:28:09.808Z,97374.34
2023-11-03T13:33:02.022Z,97403.81
2023-11-03T13:37:53.981Z,97414.44
2023-11-03T13:42:45.864Z,97416.28
2023-11-03T13:47:38.731Z,97411.19
2023-11-03T13:52:31.254Z,97417.94
2023-11-03T13:57:23.488Z,97433.88
2023-11-03T14:02:15.508Z,97444.50
2023-11-03T14:07:13.785Z,97446.16
2023-11-03T14:12:06.095Z,97451.66
2023-11-03T14:17:00.082Z,97451.84
2023-11-03T14:21:51.925Z,97450.41
2023-11-03T14:26:48.683Z,97457.81
2023-11-03T14:31:42.491Z,97445.53
2023-11-03T14:36:44.251Z,97447.19
2023-11-03T14:41:41.732Z,97443.44
2023-11-03T14:46:36.238Z,97441.84
2023-11-03T14:51:28.059Z,97446.16
2023-11-03T14:56:19.979Z,97439.19
2023-11-03T15:01:16.805Z,97438.19
2023-11-03T15:06:09.548Z,97440.84
2023-11-03T15:11:01.250Z,97446.16
2023-11-03T15:15:53.781Z,97448.38
2023-11-03T15:20:45.724Z,97459.25
2023-11-03T15:25:37.451Z,97467.44
2023-11-03T15:30:29.685Z,97478.06
2023-11-03T15:35:22.282Z,97477.22
2023-11-03T15:40:18.921Z,97489.31
2023-11-03T15:45:12.941Z,97505.25
2023-11-03T15:50:05.495Z,97522.03
2023-11-03T15:54:57.190Z,97542.28
2023-11-03T15:59:50.200Z,97547.75
2023-11-03T16:04:42.319Z,97555.75
2023-11-03T16:09:35.091Z,97559.59
2023-11-03T16:14:26.822Z,97563.72
2023-11-03T16:19:18.657Z,97575.00
2023-11-03T16:24:13.089Z,97579.50
2023-11-03T16:29:05.637Z,97577.66
2023-11-03T16:33:57.428Z,97584.97
2023-11-03T16:38:54.498Z,97591.59
2023-11-03T16:43:46.637Z,97594.44
2023-11-03T16:48:41.093Z,97604.69
2023-11-03T16:53:32.895Z,97601.22
2023-11-03T16:58:24.683Z,97605.69
2023-11-03T17:03:17.013Z,97610.84
2023-11-03T17:08:10.804Z,97614.31
2023-11-03T17:13:04.294Z,97619.81
2023-11-03T17:17:56.882Z,97633.56
2023-11-03T17:22:49.245Z,97637.06
2023-11-03T17:27:41.208Z,97643.19
2023-11-03T17:32:33.849Z,97647.50
2023-11-03T17:37:27.701Z,97651.97
2023-11-03T17:42:20.079Z,97643.19
2023-11-03T17:47:12.528Z,97642.38
2023-11-03T17:52:05.185Z,97637.66
2023-11-03T17:56:58.144Z,97647.94
2023-11-03T18:01:50.391Z,97652.44
2023-11-03T18:06:42.852Z,97657.78
2023-11-03T18:11:34.609Z,97670.22
2023-11-03T18:16:27.022Z,97677.84
2023-11-03T18:21:18.937Z,97686.63
2023-11-03T18:26:11.113Z,97689.13
2023-11-03T18:31:04.652Z,97699.75
2023-11-03T18:35:56.425Z,97696.91
2023-11-03T18:40:48.313Z,97709.03
2023-11-03T18:45:40.171Z,97695.91
2023-11-03T18:51:23.656Z,97686.25
2023-11-03T19:07:14.476Z,97699.41
2023-11-03T19:10:47.348Z,97706.72
2023-11-03T19:15:39.275Z,97716.84
2023-11-03T19:20:30.987Z,97725.81
2023-11-03T19:25:24.032Z,97743.59
2023-11-03T19:30:16.522Z,97747.09
2023-11-03T19:35:10.498Z,97760.53
2023-11-03T19:40:02.247Z,97765.69
2023-11-03T19:44:54.171Z,97774.50
2023-11-03T19:49:45.969Z,97771.84
2023-11-03T19:54:37.880Z,97762.19
2023-11-03T19:59:29.744Z,97762.19
2023-11-03T20:04:26.568Z,97769.38
2023-11-03T20:09:19.063Z,97767.53
2023-11-03T20:14:11.201Z,97773.84
2023-11-03T20:19:05.182Z,97780.97
2023-11-03T20:23:57.801Z,97778.00
2023-11-03T20:28:50.355Z,97785.13
2023-11-03T20:33:42.715Z,97800.44
2023-11-03T20:38:34.801Z,97795.94
2023-11-03T20:43:28.090Z,97800.06
2023-11-03T20:48:20.074Z,97808.88
2023-11-03T20:53:12.470Z,97817.69
2023-11-03T20:58:05.209Z,97830.97
2023-11-03T21:02:57.140Z,97856.56
2023-11-03T21:07:50.197Z,97874.97
2023-11-03T21:12:43.649Z,97875.81
2023-11-03T21:17:36.284Z,97887.63
2023-11-03T21:22:28.128Z,97881.31
2023-11-03T21:27:19.917Z,97881.31
2023-11-03T21:32:11.845Z,97891.94
2023-11-03T21:37:05.035Z,97898.75
2023-11-03T21:41:57.069Z,97903.22
2023-11-03T21:46:48.955Z,97905.88
2023-11-03T21:51:42.499Z,97911.03
2023-11-03T21:56:34.641Z,97911.56
2023-11-03T22:01:26.837Z,97916.72
2023-11-03T22:06:18.591Z,97932.47
2023-11-03T22:11:10.424Z,97923.03
2023-11-03T22:16:02.774Z,97924.50
2023-11-03T22:20:54.834Z,97924.69
2023-11-03T22:25:46.624Z,97933.94
2023-11-03T22:30:39.816Z,97941.13
2023-11-03T22:35:31.648Z,97947.44
2023-11-03T22:40:23.572Z,97951.94
2023-11-03T22:45:15.542Z,97960.06
2023-11-03T22:50:07.650Z,97946.78
2023-11-03T22:54:59.586Z,97951.94
2023-11-03T22:59:52.371Z,97957.41
2023-11-03T23:04:45.111Z,97955.09
2023-11-03T23:09:39.870Z,97956.94
2023-11-03T23:14:31.736Z,97964.56
2023-11-03T23:19:23.647Z,97957.59
2023-11-03T23:24:15.624Z,97967.22
2023-11-03T23:29:09.248Z,97972.56
2023-11-03T23:34:01.783Z,97991.16
2023-11-03T23:38:55.208Z,98005.63
2023-11-03T23:43:46.884Z,98010.78
2023-11-03T23:48:38.756Z,97992.97
2023-11-03T23:53:30.535Z,97990.50
2023-11-03T23:58:22.493Z,98009.94
